Time;durP1;ratioP1;P1;durP2;ratioP2;P2;SDS_P1;SDS_P2;PMS_P1;PMS_P2;Temp;Humidity;BMP_temperature;BMP_pressure;BME280_temperature;BME280_humidity;BME280_pressure;Samples;Min_cycle;Max_cycle;Signal;HPM_P1;HPM_P2
2024/05/05 16:57:02;;;;;;;1.40;1.00;;;;;;;21.41;48.53;99727.94;5447274;25;21035;-73
2024/05/05 16:59:27;;;;;;;0.83;0.83;;;;;;;21.54;44.23;99731.25;5386138;26;20451;-73
2024/05/05 17:01:52;;;;;;;0.83;0.83;;;;;;;21.51;43.84;99729.84;5365480;26;20228;-72
2024/05/05 17:04:18;;;;;;;1.33;1.00;;;;;;;21.59;42.13;99732.00;5371427;26;20310;-74
2024/05/05 17:06:43;;;;;;;1.10;0.80;;;;;;;21.21;44.30;99725.31;5392050;26;20259;-74
2024/05/05 17:09:08;;;;;;;0.90;0.90;;;;;;;21.35;44.63;99712.28;5414885;26;20256;-74
2024/05/05 17:11:33;;;;;;;1.97;1.87;;;;;;;21.44;44.40;99714.44;5382999;26;20244;-74
2024/05/05 17:13:59;;;;;;;1.50;1.50;;;;;;;21.39;44.08;99715.31;5394827;26;20749;-74
2024/05/05 17:16:24;;;;;;;2.07;1.93;;;;;;;21.48;43.78;99716.38;5343457;26;20288;-74
2024/05/05 17:18:49;;;;;;;1.80;1.70;;;;;;;21.55;43.67;99730.06;5346686;26;20319;-74
2024/05/05 17:21:14;;;;;;;1.50;1.40;;;;;;;21.27;43.67;99714.88;5329343;27;20283;-73
2024/05/05 17:23:40;;;;;;;1.80;1.70;;;;;;;21.16;44.74;99716.91;5342448;26;20229;-73
2024/05/05 17:26:06;;;;;;;1.63;1.53;;;;;;;21.22;44.59;99712.13;5353835;26;20576;-73
2024/05/05 17:28:31;;;;;;;1.60;1.50;;;;;;;21.34;45.34;99716.22;5348261;26;20237;-74
2024/05/05 17:30:56;;;;;;;3.23;2.10;;;;;;;21.32;44.84;99700.78;5350943;26;20456;-75
2024/05/05 17:33:22;;;;;;;1.80;1.70;;;;;;;21.24;45.24;99715.44;5347084;26;20256;-74
2024/05/05 17:35:47;;;;;;;2.83;2.63;;;;;;;21.12;45.04;99715.78;5348925;26;20575;-73
2024/05/05 17:38:12;;;;;;;1.90;1.80;;;;;;;21.11;45.21;99704.84;5378158;26;20243;-73
2024/05/05 17:40:38;;;;;;;2.17;2.07;;;;;;;21.29;44.96;99696.59;5340874;26;20225;-73
2024/05/05 17:43:03;;;;;;;1.80;1.70;;;;;;;21.26;45.84;99707.56;5351295;26;20224;-74
2024/05/05 17:45:29;;;;;;;2.00;1.90;;;;;;;21.08;45.57;99703.50;5341062;26;20237;-73
2024/05/05 17:47:54;;;;;;;2.53;2.33;;;;;;;21.08;45.09;99709.09;5356407;26;20279;-73
2024/05/05 17:50:19;;;;;;;4.23;3.97;;;;;;;21.18;45.30;99706.22;5338353;26;20578;-73
2024/05/05 17:52:45;;;;;;;3.50;3.30;;;;;;;21.17;46.54;99718.56;5358320;26;20228;-73
2024/05/05 17:55:11;;;;;;;3.10;2.87;;;;;;;20.74;45.90;99714.66;5340338;26;20701;-73
2024/05/05 17:57:36;;;;;;;2.80;2.60;;;;;;;20.75;46.21;99713.53;5361550;26;20479;-73
2024/05/05 18:00:01;;;;;;;3.20;3.00;;;;;;;20.50;46.00;99714.50;5363811;26;20560;-74
2024/05/05 18:02:27;;;;;;;2.60;2.50;;;;;;;20.82;46.56;99708.41;5398449;26;20609;-74
2024/05/05 18:04:52;;;;;;;2.47;2.27;;;;;;;20.90;46.86;99724.66;5361641;26;20232;-73
2024/05/05 18:07:17;;;;;;;2.27;2.17;;;;;;;20.79;45.45;99730.63;5359140;26;20694;-74
2024/05/05 18:09:44;;;;;;;2.47;2.33;;;;;;;20.85;45.97;99712.63;5349800;26;20245;-74
2024/05/05 18:12:10;;;;;;;1.83;1.73;;;;;;;20.83;46.05;99731.72;5358026;26;20821;-75
2024/05/05 18:14:35;;;;;;;1.63;1.43;;;;;;;20.72;46.27;99730.94;5355409;26;20462;-73
2024/05/05 18:17:02;;;;;;;2.70;1.50;;;;;;;20.14;47.40;99718.56;5363640;26;20624;-74
2024/05/05 18:19:27;;;;;;;1.30;1.30;;;;;;;20.00;49.00;99719.16;5345855;26;20269;-75
2024/05/05 18:21:52;;;;;;;1.47;1.43;;;;;;;20.31;49.21;99717.09;5361553;26;20803;-74
2024/05/05 18:24:18;;;;;;;1.53;1.47;;;;;;;20.82;48.01;99725.28;5371104;26;20555;-74
2024/05/05 18:26:43;;;;;;;3.13;1.60;;;;;;;20.82;47.83;99716.84;5358761;26;20350;-74
2024/05/05 18:29:08;;;;;;;1.53;1.43;;;;;;;20.71;48.39;99724.50;5317816;26;20268;-74
2024/05/05 18:31:33;;;;;;;2.37;2.27;;;;;;;20.22;48.71;99718.81;5330368;26;20237;-77
2024/05/05 18:33:59;;;;;;;2.27;1.97;;;;;;;20.46;49.77;99719.03;5327591;26;20717;-75
2024/05/05 18:36:24;;;;;;;1.67;1.57;;;;;;;20.59;49.18;99704.38;5342044;26;20263;-74
2024/05/05 18:38:49;;;;;;;1.80;1.70;;;;;;;20.70;49.24;99705.97;5352145;26;20570;-74
2024/05/05 18:41:14;;;;;;;1.90;1.80;;;;;;;20.70;49.28;99720.00;5354514;26;20236;-74
2024/05/05 18:43:40;;;;;;;2.00;1.90;;;;;;;20.68;49.58;99727.88;5354109;26;20566;-74
2024/05/05 18:46:05;;;;;;;1.87;1.77;;;;;;;20.29;49.10;99716.53;5358367;26;20232;-75
2024/05/05 18:48:30;;;;;;;3.20;1.77;;;;;;;19.60;50.22;99710.84;5367084;26;20594;-74
2024/05/05 18:50:56;;;;;;;1.57;1.47;;;;;;;19.56;51.05;99729.31;5349356;26;20237;-74
2024/05/05 18:53:21;;;;;;;2.53;1.87;;;;;;;19.76;50.84;99731.28;5360766;26;20335;-73
2024/05/05 18:55:46;;;;;;;1.60;1.60;;;;;;;19.65;51.24;99722.03;5351570;26;20243;-73
2024/05/05 18:58:11;;;;;;;1.53;1.53;;;;;;;19.82;53.87;99722.56;5358199;26;20663;-75
2024/05/05 19:00:37;;;;;;;1.90;1.80;;;;;;;20.35;52.39;99722.94;5369984;26;20240;-74
2024/05/05 19:03:03;;;;;;;2.07;1.87;;;;;;;20.63;50.01;99741.09;5364701;26;20229;-74
2024/05/05 19:05:28;;;;;;;1.77;1.67;;;;;;;20.79;49.19;99728.66;5360669;26;20270;-74
2024/05/05 19:07:53;;;;;;;1.90;1.80;;;;;;;20.73;49.96;99741.06;5338238;26;20464;-74
2024/05/05 19:10:19;;;;;;;2.00;1.80;;;;;;;20.45;50.48;99734.19;5368259;26;20245;-74
2024/05/05 19:12:44;;;;;;;2.07;1.97;;;;;;;20.27;51.41;99730.00;5335665;26;20232;-74
2024/05/05 19:15:09;;;;;;;2.10;2.00;;;;;;;19.99;53.49;99728.72;5363906;26;20712;-74
2024/05/05 19:17:35;;;;;;;2.00;1.90;;;;;;;19.98;54.42;99729.84;5376340;26;20232;-74
2024/05/05 19:20:00;;;;;;;2.20;2.10;;;;;;;19.41;58.69;99726.50;5358412;26;20702;-74
2024/05/05 19:22:27;;;;;;;1.90;1.80;;;;;;;19.05;61.55;99722.88;5342857;26;20235;-74
2024/05/05 19:24:52;;;;;;;2.17;2.07;;;;;;;19.22;61.88;99715.88;5345501;26;20338;-74
2024/05/05 19:27:18;;;;;;;2.37;2.27;;;;;;;19.60;60.68;99722.88;5365168;26;20460;-74
2024/05/05 19:29:43;;;;;;;2.33;2.23;;;;;;;19.62;57.93;99722.59;5337331;26;20263;-74
2024/05/05 19:32:08;;;;;;;2.70;2.30;;;;;;;19.60;58.01;99717.28;5361297;26;20661;-74
2024/05/05 19:34:34;;;;;;;2.77;2.57;;;;;;;19.27;58.68;99703.81;5375736;26;20228;-74
2024/05/05 19:36:59;;;;;;;4.33;2.67;;;;;;;19.01;60.19;99713.34;5359457;26;20693;-74
2024/05/05 19:39:24;;;;;;;3.03;2.73;;;;;;;18.66;61.97;99709.34;5362528;26;20229;-74
2024/05/05 19:41:52;;;;;;;3.47;3.17;;;;;;;18.81;61.82;99708.53;5369776;26;20563;-75
2024/05/05 19:44:17;;;;;;;3.03;2.63;;;;;;;18.59;63.55;99704.03;5338651;26;20279;-74
2024/05/05 19:46:42;;;;;;;3.30;3.00;;;;;;;18.39;64.61;99709.53;5353023;26;20459;-74
2024/05/05 19:49:07;;;;;;;2.67;2.57;;;;;;;18.22;65.82;99706.09;5367080;26;20628;-74
2024/05/05 19:51:33;;;;;;;3.37;3.17;;;;;;;18.10;66.47;99716.66;5338809;26;20233;-74
2024/05/05 19:53:58;;;;;;;3.03;2.77;;;;;;;17.86;66.60;99722.72;5350804;26;20706;-74
2024/05/05 19:56:23;;;;;;;2.70;2.60;;;;;;;17.66;67.92;99719.78;5377205;26;20266;-74
2024/05/05 19:58:48;;;;;;;2.57;2.47;;;;;;;17.40;67.98;99715.09;5360869;26;20353;-75
2024/05/05 20:01:14;;;;;;;2.63;2.43;;;;;;;17.11;70.23;99720.97;5371733;26;20278;-74
2024/05/05 20:03:39;;;;;;;3.93;3.40;;;;;;;16.88;71.48;99715.75;5336171;26;20567;-74
2024/05/05 20:06:05;;;;;;;5.63;3.53;;;;;;;17.21;70.59;99718.28;5369426;26;20282;-75
2024/05/05 20:08:30;;;;;;;3.33;3.10;;;;;;;17.27;71.63;99724.75;5352207;26;20241;-74
2024/05/05 20:10:55;;;;;;;3.10;2.90;;;;;;;17.19;72.52;99719.66;5369512;26;20233;-74
2024/05/05 20:13:21;;;;;;;3.10;2.80;;;;;;;17.09;73.67;99717.63;5364692;26;20562;-74
2024/05/05 20:15:46;;;;;;;4.20;2.90;;;;;;;17.13;73.65;99707.59;5358992;26;20240;-74
2024/05/05 20:18:12;;;;;;;3.37;3.17;;;;;;;17.80;69.30;99709.81;5331034;26;20803;-74
2024/05/05 20:20:37;;;;;;;3.37;2.77;;;;;;;17.21;71.41;99709.94;5369418;26;20722;-75
2024/05/05 20:23:03;;;;;;;3.83;2.80;;;;;;;16.50;75.24;99711.13;5338399;26;20235;-74
2024/05/05 20:25:28;;;;;;;3.30;3.10;;;;;;;16.12;76.79;99715.72;5347830;26;20233;-74
2024/05/05 20:27:53;;;;;;;3.27;3.07;;;;;;;16.06;77.33;99705.59;5371418;26;20632;-74
2024/05/05 20:30:18;;;;;;;3.20;3.00;;;;;;;15.79;78.31;99704.66;5366643;26;20229;-74
2024/05/05 20:32:44;;;;;;;3.30;3.10;;;;;;;16.43;76.19;99708.56;5368773;26;20237;-74
2024/05/05 20:35:09;;;;;;;3.30;3.07;;;;;;;15.86;76.95;99687.78;5333764;26;20286;-75
2024/05/05 20:37:34;;;;;;;3.53;3.20;;;;;;;16.50;75.37;99698.03;5358842;26;20278;-73
2024/05/05 20:40:00;;;;;;;3.53;3.23;;;;;;;15.87;77.73;99714.53;5360580;26;20636;-74
2024/05/05 20:42:25;;;;;;;4.10;3.87;;;;;;;15.87;77.79;99703.41;5350567;26;20241;-73
2024/05/05 20:44:50;;;;;;;3.03;2.87;;;;;;;15.82;76.71;99705.00;5368740;26;20240;-74
2024/05/05 20:47:16;;;;;;;3.27;3.07;;;;;;;15.67;78.48;99703.94;5315662;26;20579;-74
2024/05/05 20:49:41;;;;;;;3.67;3.47;;;;;;;15.99;77.95;99701.31;5346044;26;20233;-74
2024/05/05 20:52:07;;;;;;;4.80;3.10;;;;;;;16.28;77.60;99715.91;5362330;26;20279;-74
2024/05/05 20:54:32;;;;;;;3.80;3.60;;;;;;;15.97;78.96;99714.66;5358402;26;20704;-74
2024/05/05 20:56:58;;;;;;;4.13;3.70;;;;;;;16.24;78.49;99700.78;5344361;26;20694;-74
2024/05/05 20:59:23;;;;;;;6.57;3.90;;;;;;;16.22;78.15;99703.00;5357456;26;20284;-74
2024/05/05 21:01:48;;;;;;;3.50;3.20;;;;;;;16.59;76.94;99706.78;5367115;26;20232;-74
2024/05/05 21:04:14;;;;;;;3.60;3.40;;;;;;;16.41;77.14;99690.41;5358533;26;20600;-74
2024/05/05 21:06:39;;;;;;;4.50;3.93;;;;;;;16.59;76.55;99709.56;5358204;26;20232;-74
2024/05/05 21:09:04;;;;;;;6.03;3.30;;;;;;;16.25;78.32;99717.25;5367382;26;20232;-74
2024/05/05 21:11:30;;;;;;;4.07;3.43;;;;;;;16.56;77.36;99723.19;5368209;26;20254;-74
2024/05/05 21:13:55;;;;;;;3.43;3.23;;;;;;;16.37;78.49;99726.31;5362270;26;20271;-74
2024/05/05 21:16:20;;;;;;;3.67;3.47;;;;;;;16.54;77.44;99720.66;5365516;26;20233;-73
2024/05/05 21:18:45;;;;;;;4.63;4.27;;;;;;;16.20;79.19;99708.81;5364288;26;20236;-75
2024/05/05 21:21:11;;;;;;;4.10;3.90;;;;;;;16.43;79.44;99724.44;5358148;26;20232;-74
2024/05/05 21:23:36;;;;;;;4.33;3.93;;;;;;;16.98;76.30;99721.41;5360058;26;20330;-73
2024/05/05 21:26:01;;;;;;;4.40;2.83;;;;;;;17.03;75.18;99723.44;5368147;26;20237;-74
2024/05/05 21:28:27;;;;;;;2.77;2.57;;;;;;;16.86;76.13;99717.97;5346193;26;20733;-74
2024/05/05 21:30:52;;;;;;;3.07;2.87;;;;;;;16.84;76.21;99717.38;5367580;26;20709;-74
2024/05/05 21:33:17;;;;;;;3.43;3.13;;;;;;;16.69;76.88;99703.28;5346500;26;20240;-74
2024/05/05 21:35:42;;;;;;;3.80;3.27;;;;;;;16.53;78.01;99713.41;5358872;26;20350;-74
2024/05/05 21:38:09;;;;;;;2.90;2.70;;;;;;;16.50;78.73;99714.75;5380237;26;20682;-74
2024/05/05 21:40:34;;;;;;;3.50;3.20;;;;;;;16.17;79.73;99695.44;5365378;26;20305;-74
2024/05/05 21:42:59;;;;;;;4.20;3.50;;;;;;;15.93;81.16;99697.63;5382758;26;20469;-74
2024/05/05 21:45:25;;;;;;;5.63;3.37;;;;;;;15.47;82.05;99694.16;5363769;26;20707;-74
2024/05/05 21:47:52;;;;;;;3.03;2.83;;;;;;;15.35;83.25;99699.00;5371592;26;20229;-74
2024/05/05 21:50:17;;;;;;;3.60;3.40;;;;;;;15.63;81.24;99695.25;5320822;26;20722;-73
2024/05/05 21:52:42;;;;;;;4.93;3.03;;;;;;;16.11;80.12;99688.09;5330684;26;20568;-74
2024/05/05 21:55:07;;;;;;;3.57;2.90;;;;;;;16.24;78.96;99692.44;5379804;26;20279;-74
2024/05/05 21:57:33;;;;;;;3.07;2.87;;;;;;;16.99;75.45;99700.78;5383718;26;20232;-74
2024/05/05 21:59:58;;;;;;;2.90;2.70;;;;;;;16.93;75.23;99689.84;5359011;26;20268;-73
2024/05/05 22:02:23;;;;;;;3.73;3.27;;;;;;;16.86;73.56;99682.53;5366714;26;20245;-74
2024/05/05 22:04:49;;;;;;;2.70;2.50;;;;;;;16.56;74.86;99686.94;5371477;26;20280;-74
2024/05/05 22:07:14;;;;;;;3.10;2.90;;;;;;;16.44;75.78;99682.38;5366954;26;20713;-74
2024/05/05 22:09:39;;;;;;;3.20;3.00;;;;;;;16.10;75.93;99678.06;5351194;26;20336;-74
2024/05/05 22:12:05;;;;;;;3.17;2.83;;;;;;;16.29;76.01;99676.63;5348794;26;20229;-74
2024/05/05 22:14:30;;;;;;;3.37;3.07;;;;;;;16.69;75.11;99667.03;5329314;26;20239;-74
2024/05/05 22:16:55;;;;;;;4.17;2.97;;;;;;;16.41;77.96;99665.31;5358708;26;20241;-76
2024/05/05 22:19:21;;;;;;;3.97;3.70;;;;;;;16.27;79.36;99664.88;5364063;26;20852;-74
2024/05/05 22:21:46;;;;;;;3.47;3.27;;;;;;;15.82;81.18;99635.38;5360229;26;20269;-74
2024/05/05 22:24:11;;;;;;;3.20;3.00;;;;;;;15.89;82.06;99651.88;5382131;26;20252;-74
2024/05/05 22:26:37;;;;;;;3.70;3.50;;;;;;;16.10;80.85;99653.81;5353224;26;20229;-74
2024/05/05 22:29:02;;;;;;;4.40;3.03;;;;;;;16.13;80.33;99647.72;5348111;26;20249;-73
2024/05/05 22:31:27;;;;;;;3.80;3.27;;;;;;;15.93;81.87;99643.84;5370368;26;20229;-72
2024/05/05 22:33:52;;;;;;;3.20;3.00;;;;;;;16.01;82.43;99652.59;5358734;26;20280;-73
2024/05/05 22:36:18;;;;;;;3.43;3.13;;;;;;;16.02;81.80;99643.16;5370345;26;20331;-74
2024/05/05 22:38:43;;;;;;;3.27;3.00;;;;;;;15.74;82.60;99646.09;5370711;26;20227;-74
2024/05/05 22:41:08;;;;;;;3.20;3.00;;;;;;;15.79;82.65;99649.81;5360274;26;20671;-74
2024/05/05 22:43:33;;;;;;;3.07;2.87;;;;;;;15.81;82.45;99646.78;5378774;26;20232;-74
2024/05/05 22:45:59;;;;;;;2.70;2.50;;;;;;;15.79;82.42;99630.31;5364928;26;20231;-74
2024/05/05 22:48:24;;;;;;;3.63;3.37;;;;;;;15.62;83.72;99635.09;5358126;26;20267;-73
2024/05/05 22:50:49;;;;;;;3.00;2.80;;;;;;;15.35;84.78;99620.22;5373152;26;20693;-74
2024/05/05 22:53:14;;;;;;;3.03;2.73;;;;;;;15.98;82.08;99627.22;5360560;26;20232;-74
2024/05/05 22:55:40;;;;;;;4.33;2.80;;;;;;;16.17;81.51;99637.75;5361042;26;20241;-73
2024/05/05 22:58:05;;;;;;;3.43;3.13;;;;;;;15.80;82.24;99615.28;5359571;26;20280;-73
2024/05/05 23:00:30;;;;;;;3.23;3.00;;;;;;;15.84;83.24;99637.91;5370004;26;20235;-74
2024/05/05 23:02:56;;;;;;;3.10;3.00;;;;;;;15.66;83.85;99619.56;5362173;26;20232;-73
2024/05/05 23:05:21;;;;;;;2.80;2.70;;;;;;;15.76;83.31;99616.06;5360279;26;20233;-74
2024/05/05 23:07:46;;;;;;;3.57;3.27;;;;;;;15.70;83.41;99614.31;5365768;26;20241;-74
2024/05/05 23:10:11;;;;;;;3.40;3.20;;;;;;;15.65;84.05;99631.81;5370164;26;20619;-74
2024/05/05 23:12:37;;;;;;;3.27;3.07;;;;;;;15.75;82.79;99619.94;5366800;26;20228;-73
2024/05/05 23:15:03;;;;;;;3.50;3.30;;;;;;;15.32;84.62;99620.72;5326107;26;20245;-74
2024/05/05 23:17:28;;;;;;;4.43;3.50;;;;;;;15.35;84.22;99623.00;5369216;26;20747;-73
2024/05/05 23:19:53;;;;;;;3.70;3.20;;;;;;;16.22;80.56;99639.72;5370340;26;20232;-73
2024/05/05 23:22:19;;;;;;;2.43;2.33;;;;;;;15.80;81.50;99626.44;5349184;26;20283;-74
2024/05/05 23:24:44;;;;;;;3.10;3.00;;;;;;;15.30;85.02;99623.75;5337680;26;20233;-74
2024/05/05 23:27:09;;;;;;;4.07;3.77;;;;;;;15.52;84.02;99618.22;5347220;26;20711;-74
2024/05/05 23:29:34;;;;;;;4.07;3.77;;;;;;;15.63;82.80;99608.09;5364033;26;20341;-74
2024/05/05 23:32:00;;;;;;;3.80;3.50;;;;;;;15.62;83.11;99611.97;5354452;26;20271;-74
2024/05/05 23:34:25;;;;;;;4.70;3.27;;;;;;;15.41;85.62;99617.25;5366347;26;20224;-74
2024/05/05 23:36:50;;;;;;;3.13;2.83;;;;;;;15.72;82.23;99615.75;5359780;26;20236;-74
2024/05/05 23:39:15;;;;;;;3.30;3.10;;;;;;;15.27;85.83;99607.59;5360026;26;20229;-74
2024/05/05 23:41:41;;;;;;;3.30;3.10;;;;;;;15.46;85.92;99620.09;5350725;26;20244;-74
2024/05/05 23:44:06;;;;;;;4.20;3.10;;;;;;;15.61;84.44;99602.78;5359347;26;20718;-74
2024/05/05 23:46:36;;;;;;;4.60;3.43;;;;;;;15.95;82.39;99613.78;5368220;26;20240;-74
2024/05/05 23:49:01;;;;;;;4.80;2.97;;;;;;;15.68;83.66;99614.59;5358385;26;20347;-74
2024/05/05 23:51:27;;;;;;;3.13;2.93;;;;;;;15.62;83.30;99596.13;5364683;26;20466;-73
2024/05/05 23:53:52;;;;;;;3.20;3.00;;;;;;;15.28;85.37;99613.97;5374879;26;20237;-74
2024/05/05 23:56:17;;;;;;;3.40;3.20;;;;;;;15.54;84.71;99609.63;5347183;26;20241;-75
2024/05/05 23:58:42;;;;;;;3.80;3.10;;;;;;;15.44;85.15;99590.81;5369363;26;20233;-74
